Time;durP1;ratioP1;P1;durP2;ratioP2;P2;SDS_P1;SDS_P2;PMS_P1;PMS_P2;Temp;Humidity;BMP_temperature;BMP_pressure;BME280_temperature;BME280_humidity;BME280_pressure;Samples;Min_cycle;Max_cycle;Signal;HPM_P1;HPM_P2
2022/04/19 00:01:10;;;;;;;2.67;1.90;;;13.30;90.40;;;;;;5055010;28;20025;-88
2022/04/19 00:03:36;;;;;;;3.13;2.00;;;13.40;90.50;;;;;;5037074;28;20340;-88
2022/04/19 00:06:01;;;;;;;3.28;1.60;;;13.30;90.50;;;;;;5037235;28;20116;-88
2022/04/19 00:08:27;;;;;;;4.93;1.92;;;13.30;90.50;;;;;;5036721;28;20128;-88
2022/04/19 00:10:53;;;;;;;3.17;1.77;;;13.30;90.50;;;;;;5037282;28;20017;-88
2022/04/19 00:13:18;;;;;;;4.50;1.70;;;13.30;90.50;;;;;;5037093;28;20083;-88
2022/04/19 00:15:45;;;;;;;4.80;1.83;;;13.30;90.50;;;;;;5036854;28;20124;-88
2022/04/19 00:18:11;;;;;;;3.85;1.83;;;13.30;90.50;;;;;;5036956;28;20108;-88
2022/04/19 00:20:42;;;;;;;3.47;1.80;;;13.30;90.50;;;;;;5036885;28;20051;-88
2022/04/19 00:23:15;;;;;;;3.33;1.83;;;13.30;90.50;;;;;;5054792;28;20049;-88
2022/04/19 00:25:43;;;;;;;3.30;1.90;;;13.30;90.50;;;;;;5036957;28;20119;-88
2022/04/19 00:28:09;;;;;;;5.95;1.73;;;13.30;90.50;;;;;;5054641;28;20400;-89
2022/04/19 00:30:35;;;;;;;3.35;1.65;;;13.20;90.40;;;;;;5036813;28;20053;-88
2022/04/19 00:33:01;;;;;;;2.17;1.45;;;13.20;90.40;;;;;;5054499;28;20083;-88
2022/04/19 00:35:28;;;;;;;3.55;1.35;;;13.20;90.50;;;;;;5036638;28;20468;-88
2022/04/19 00:37:54;;;;;;;4.28;1.63;;;13.20;90.50;;;;;;5054386;28;20468;-89
2022/04/19 00:40:20;;;;;;;2.20;1.50;;;13.20;90.50;;;;;;5036680;28;20420;-88
2022/04/19 00:42:47;;;;;;;2.45;1.42;;;13.20;90.50;;;;;;5036030;28;20021;-88
2022/04/19 00:45:13;;;;;;;3.35;1.88;;;13.20;90.50;;;;;;5054409;28;20021;-88
2022/04/19 00:47:39;;;;;;;4.07;1.50;;;13.10;90.50;;;;;;5036681;28;20028;-88
2022/04/19 00:50:07;;;;;;;3.72;1.70;;;13.10;90.50;;;;;;5036325;28;20032;-88
2022/04/19 00:52:34;;;;;;;2.15;1.30;;;13.20;90.50;;;;;;5053752;28;20101;-88
2022/04/19 00:55:01;;;;;;;7.05;1.52;;;13.10;90.50;;;;;;5036149;28;20082;-88
2022/04/19 00:57:28;;;;;;;2.53;1.50;;;13.10;90.50;;;;;;5036446;28;20063;-88
2022/04/19 00:59:57;;;;;;;2.55;1.85;;;13.10;90.50;;;;;;5036460;28;20463;-88
2022/04/19 01:02:25;;;;;;;2.90;1.75;;;13.10;90.50;;;;;;5036406;28;20028;-88
2022/04/19 01:04:51;;;;;;;2.83;1.63;;;13.10;90.50;;;;;;5053842;28;20029;-88
2022/04/19 01:07:21;;;;;;;3.50;1.33;;;13.00;90.50;;;;;;5035911;28;20028;-89
2022/04/19 01:09:47;;;;;;;3.55;1.63;;;13.10;90.50;;;;;;5035937;28;20031;-88
2022/04/19 01:15:07;;;;;;;3.65;1.92;;;13.00;90.50;;;;;;5054143;28;20050;-88
2022/04/19 01:17:41;;;;;;;3.55;1.73;;;13.00;90.50;;;;;;5035649;28;20021;-89
2022/04/19 01:20:12;;;;;;;4.57;1.73;;;13.00;90.50;;;;;;5035756;28;20031;-88
2022/04/19 01:22:39;;;;;;;4.28;1.40;;;13.00;90.50;;;;;;5035537;28;20071;-88
2022/04/19 01:25:06;;;;;;;4.05;1.80;;;13.00;90.50;;;;;;5053736;28;20161;-88
2022/04/19 01:27:32;;;;;;;4.15;1.67;;;13.00;90.60;;;;;;5053941;28;20021;-88
2022/04/19 01:30:02;;;;;;;2.55;1.60;;;12.90;90.50;;;;;;5036388;28;20033;-88
2022/04/19 01:32:28;;;;;;;2.47;1.50;;;12.90;90.50;;;;;;5036149;28;20025;-88
2022/04/19 01:35:10;;;;;;;3.05;1.80;;;12.90;90.50;;;;;;5036171;28;20043;-88
2022/04/19 01:37:37;;;;;;;3.55;1.75;;;12.90;90.50;;;;;;5035488;28;20025;-88
2022/04/19 01:40:16;;;;;;;2.92;1.75;;;12.90;90.50;;;;;;5052991;28;20033;-88
2022/04/19 01:42:44;;;;;;;3.78;1.67;;;12.90;90.60;;;;;;5035171;28;20033;-88
2022/04/19 01:45:10;;;;;;;2.65;1.60;;;12.90;90.60;;;;;;5035126;28;20120;-88
2022/04/19 01:47:35;;;;;;;4.88;1.83;;;12.80;90.50;;;;;;5052994;28;20056;-87
2022/04/19 01:50:01;;;;;;;6.97;2.10;;;12.80;90.60;;;;;;5035081;28;20373;-88
2022/04/19 01:52:27;;;;;;;5.13;1.75;;;12.80;90.70;;;;;;5035076;28;20024;-88
2022/04/19 01:54:52;;;;;;;3.38;1.83;;;12.90;90.60;;;;;;5035163;28;20025;-88
2022/04/19 01:57:19;;;;;;;4.18;2.00;;;12.80;90.60;;;;;;5035155;28;20028;-88
2022/04/19 01:59:45;;;;;;;4.30;1.80;;;12.80;91.00;;;;;;5035917;28;20056;-88
2022/04/19 02:02:10;;;;;;;2.97;1.50;;;12.80;90.60;;;;;;5053583;28;20361;-88
2022/04/19 02:04:36;;;;;;;2.70;1.83;;;12.80;90.60;;;;;;5053788;28;20029;-87
2022/04/19 02:07:04;;;;;;;3.45;1.70;;;12.80;90.70;;;;;;5035770;28;20028;-87
2022/04/19 02:09:30;;;;;;;2.38;1.60;;;12.80;90.60;;;;;;5035662;28;20123;-87
2022/04/19 02:11:55;;;;;;;3.55;1.85;;;12.80;90.70;;;;;;5053947;28;20067;-88
2022/04/19 02:14:23;;;;;;;2.90;1.65;;;12.70;90.70;;;;;;5035015;28;20414;-88
2022/04/19 02:16:52;;;;;;;3.17;1.80;;;12.70;90.70;;;;;;5053074;28;20026;-88
2022/04/19 02:19:18;;;;;;;4.13;2.00;;;12.70;90.70;;;;;;5035584;28;20037;-88
2022/04/19 02:21:45;;;;;;;3.13;1.70;;;12.70;90.70;;;;;;5038771;28;20052;-88
2022/04/19 02:24:11;;;;;;;4.53;1.90;;;12.70;90.70;;;;;;5038783;28;20511;-88
2022/04/19 02:26:36;;;;;;;3.45;1.60;;;12.70;91.10;;;;;;5039178;28;20033;-88
2022/04/19 02:29:02;;;;;;;3.20;1.65;;;12.60;90.70;;;;;;5056930;28;20507;-87
2022/04/19 02:31:28;;;;;;;4.47;1.85;;;12.60;90.70;;;;;;5038777;28;20411;-88
2022/04/19 02:33:56;;;;;;;3.58;2.10;;;12.60;90.70;;;;;;5056810;28;20028;-88
2022/04/19 02:36:21;;;;;;;2.75;1.80;;;12.60;90.80;;;;;;5038973;28;20032;-88
2022/04/19 02:38:47;;;;;;;2.65;1.60;;;12.60;90.80;;;;;;5039821;28;20025;-88
2022/04/19 02:41:12;;;;;;;2.40;1.70;;;12.60;90.80;;;;;;5038986;28;20459;-88
2022/04/19 02:43:38;;;;;;;2.22;1.55;;;12.60;90.80;;;;;;5039113;28;20311;-88
2022/04/19 02:46:04;;;;;;;2.47;1.42;;;12.60;90.80;;;;;;5056812;28;20064;-88
2022/04/19 02:48:30;;;;;;;3.72;1.83;;;12.60;91.10;;;;;;5038601;28;20025;-87
2022/04/19 02:50:56;;;;;;;3.28;1.90;;;12.60;90.90;;;;;;5038791;28;20017;-88
2022/04/19 02:53:23;;;;;;;3.92;1.98;;;12.60;90.80;;;;;;5056501;28;20082;-88
2022/04/19 02:55:48;;;;;;;4.70;1.95;;;12.60;90.90;;;;;;5038271;28;20028;-88
2022/04/19 02:58:14;;;;;;;2.83;1.77;;;12.50;90.80;;;;;;5038363;28;20021;-88
2022/04/19 03:00:40;;;;;;;2.92;1.90;;;12.50;90.90;;;;;;5038370;28;20029;-88
2022/04/19 03:03:08;;;;;;;4.03;1.90;;;12.50;90.90;;;;;;5056051;28;20083;-88
2022/04/19 03:05:38;;;;;;;4.28;1.90;;;12.50;90.90;;;;;;5039300;28;20457;-88
2022/04/19 03:08:04;;;;;;;3.33;1.70;;;12.50;90.90;;;;;;5038206;28;20028;-88
2022/04/19 03:10:29;;;;;;;3.88;1.60;;;12.50;90.90;;;;;;5038799;28;20040;-88
2022/04/19 03:12:55;;;;;;;2.75;1.77;;;12.40;90.90;;;;;;5056481;28;20029;-88
2022/04/19 03:15:21;;;;;;;3.20;1.90;;;12.50;90.90;;;;;;5038945;28;20116;-88
2022/04/19 03:17:47;;;;;;;2.78;1.50;;;12.50;90.90;;;;;;5038379;28;20488;-88
2022/04/19 03:20:13;;;;;;;3.65;1.73;;;12.40;90.90;;;;;;5038822;28;20439;-88
2022/04/19 03:28:09;;;;;;;;;;;12.40;91.30;;;;;;5057091;28;20036;-87
2022/04/19 03:30:35;;;;;;;4.13;1.90;;;12.40;90.90;;;;;;5037684;28;20015;-87
2022/04/19 03:33:01;;;;;;;3.85;2.00;;;12.40;90.90;;;;;;5037529;28;20072;-88
2022/04/19 03:35:27;;;;;;;4.00;1.80;;;12.40;91.00;;;;;;5038128;28;20021;-88
2022/04/19 03:37:52;;;;;;;4.30;1.75;;;12.30;91.00;;;;;;5038316;28;20044;-88
2022/04/19 03:40:18;;;;;;;4.50;1.80;;;12.30;90.90;;;;;;5038143;28;20021;-88
2022/04/19 03:42:44;;;;;;;3.00;1.80;;;12.30;90.90;;;;;;5037547;28;20079;-87
2022/04/19 03:45:13;;;;;;;4.38;1.85;;;12.30;91.00;;;;;;5055933;28;20021;-88
2022/04/19 03:47:38;;;;;;;3.45;1.65;;;12.30;91.00;;;;;;5037082;28;20021;-88
2022/04/19 03:50:06;;;;;;;3.92;1.77;;;12.30;91.00;;;;;;5037236;28;20036;-87
2022/04/19 03:52:32;;;;;;;2.85;1.92;;;12.30;91.00;;;;;;5037518;28;20032;-88
2022/04/19 03:54:58;;;;;;;3.03;1.73;;;12.30;91.00;;;;;;5037526;28;20029;-88
2022/04/19 03:57:25;;;;;;;3.83;1.83;;;12.30;91.00;;;;;;5037759;28;20108;-88
2022/04/19 03:59:52;;;;;;;4.20;1.60;;;12.30;91.00;;;;;;5037288;28;20035;-88
2022/04/19 04:02:18;;;;;;;4.25;2.13;;;12.30;91.00;;;;;;5055142;28;20391;-87
2022/04/19 04:04:43;;;;;;;3.70;1.70;;;12.30;91.00;;;;;;5055422;28;20112;-88
2022/04/19 04:07:09;;;;;;;3.83;1.73;;;12.30;91.00;;;;;;5037186;28;20534;-88
2022/04/19 04:09:35;;;;;;;3.30;1.90;;;12.30;91.00;;;;;;5036772;28;20420;-87
2022/04/19 04:12:06;;;;;;;2.60;1.80;;;12.20;91.30;;;;;;5054869;28;20021;-87
2022/04/19 04:14:32;;;;;;;3.08;1.70;;;12.20;91.00;;;;;;5054740;28;20044;-87
2022/04/19 04:16:58;;;;;;;3.33;1.50;;;12.20;91.00;;;;;;5054733;28;20041;-87
2022/04/19 04:19:24;;;;;;;4.10;1.77;;;12.20;91.00;;;;;;5054724;28;20332;-87
2022/04/19 04:21:50;;;;;;;3.22;1.80;;;12.20;91.00;;;;;;5036447;28;20044;-87
2022/04/19 04:24:15;;;;;;;3.15;1.77;;;12.20;91.00;;;;;;5037269;28;20021;-89
2022/04/19 04:26:41;;;;;;;3.67;2.20;;;12.20;91.00;;;;;;5036404;28;20032;-88
2022/04/19 04:29:07;;;;;;;3.08;2.03;;;12.20;91.00;;;;;;5036158;28;20052;-89
2022/04/19 04:31:33;;;;;;;4.13;1.92;;;12.20;91.00;;;;;;5054282;28;20056;-87
2022/04/19 04:33:59;;;;;;;3.35;2.25;;;12.20;91.00;;;;;;5036199;28;20029;-89
2022/04/19 04:36:25;;;;;;;2.78;1.98;;;12.20;91.10;;;;;;5036165;28;20115;-88
2022/04/19 04:38:51;;;;;;;3.42;1.92;;;12.20;91.10;;;;;;5036185;28;20075;-89
2022/04/19 04:41:17;;;;;;;3.55;2.13;;;12.10;91.00;;;;;;5036212;28;20437;-89
2022/04/19 04:43:43;;;;;;;2.90;2.00;;;12.20;91.10;;;;;;5036963;28;20025;-89
2022/04/19 04:51:37;;;;;;;3.92;2.53;;;12.10;91.10;;;;;;5055287;28;20147;-89
2022/04/19 04:54:03;;;;;;;6.07;2.72;;;12.10;91.10;;;;;;5036790;28;20052;-89
2022/04/19 04:56:29;;;;;;;6.80;2.80;;;12.10;91.10;;;;;;5036740;28;20032;-89
2022/04/19 04:58:54;;;;;;;4.43;2.65;;;12.10;91.10;;;;;;5036551;28;20031;-87
2022/04/19 05:01:20;;;;;;;6.00;2.50;;;12.00;91.10;;;;;;5036118;28;20032;-89
2022/04/19 05:03:46;;;;;;;4.60;2.42;;;12.10;91.10;;;;;;5035842;28;20051;-89
2022/04/19 05:06:12;;;;;;;5.63;2.97;;;12.10;91.10;;;;;;5035904;28;20025;-89
2022/04/19 05:08:38;;;;;;;5.95;3.25;;;12.00;91.10;;;;;;5035831;28;20127;-89
2022/04/19 05:11:03;;;;;;;6.22;2.67;;;12.10;91.10;;;;;;5053602;28;20089;-89
2022/04/19 05:13:29;;;;;;;4.15;2.58;;;12.00;91.10;;;;;;5053912;28;20473;-89
2022/04/19 05:15:58;;;;;;;4.57;2.47;;;12.00;91.10;;;;;;5053631;28;20055;-89
2022/04/19 05:18:24;;;;;;;4.28;2.28;;;12.10;91.10;;;;;;5053661;28;20024;-88
2022/04/19 05:20:50;;;;;;;3.90;2.30;;;12.00;91.10;;;;;;5036315;28;20028;-88
2022/04/19 05:23:15;;;;;;;5.43;2.10;;;12.00;91.10;;;;;;5036233;28;20041;-88
2022/04/19 05:25:41;;;;;;;4.85;2.50;;;12.00;91.10;;;;;;5036268;28;20029;-89
2022/04/19 05:28:07;;;;;;;4.38;2.20;;;12.00;91.10;;;;;;5036133;28;20396;-89
2022/04/19 05:30:33;;;;;;;3.38;2.00;;;12.00;91.10;;;;;;5036242;28;20477;-89
2022/04/19 05:32:58;;;;;;;4.68;2.25;;;12.00;91.10;;;;;;5036242;28;20025;-89
2022/04/19 05:35:24;;;;;;;7.53;2.40;;;12.00;91.10;;;;;;5035506;28;20021;-88
2022/04/19 05:37:50;;;;;;;3.40;2.20;;;12.00;91.10;;;;;;5035357;28;20031;-88
2022/04/19 05:40:16;;;;;;;2.88;1.80;;;12.00;91.10;;;;;;5036187;28;20021;-89
2022/04/19 05:42:42;;;;;;;3.50;2.15;;;12.00;91.10;;;;;;5035928;28;20586;-89
2022/04/19 05:45:08;;;;;;;2.78;2.00;;;12.00;91.20;;;;;;5036236;28;20124;-88
2022/04/19 05:47:34;;;;;;;3.88;2.10;;;12.00;91.20;;;;;;5036146;28;20028;-89
2022/04/19 05:49:59;;;;;;;5.15;2.30;;;12.10;91.20;;;;;;5035741;28;20374;-89
2022/04/19 05:52:25;;;;;;;5.70;2.10;;;12.00;91.20;;;;;;5036542;28;20014;-88
2022/04/19 05:54:51;;;;;;;4.88;2.40;;;12.00;91.30;;;;;;5034413;28;20021;-89
2022/04/19 05:57:16;;;;;;;3.00;2.05;;;12.10;91.30;;;;;;5035461;28;20029;-88
2022/04/19 05:59:42;;;;;;;3.63;1.95;;;12.10;91.30;;;;;;5035339;28;20035;-88
2022/04/19 06:04:52;;;;;;;5.85;1.95;;;12.00;91.40;;;;;;5053365;28;20032;-88
2022/04/19 06:07:19;;;;;;;4.45;2.40;;;12.10;91.40;;;;;;5035189;28;20123;-88
2022/04/19 06:09:45;;;;;;;6.65;2.30;;;12.10;91.50;;;;;;5035230;28;20199;-89
2022/04/19 06:12:11;;;;;;;3.90;1.90;;;12.00;91.50;;;;;;5052970;28;20453;-88
2022/04/19 06:14:37;;;;;;;3.42;1.85;;;12.10;91.50;;;;;;5034907;28;20021;-88
2022/04/19 06:17:03;;;;;;;4.88;1.98;;;12.10;91.60;;;;;;5034949;28;20392;-88
2022/04/19 06:19:29;;;;;;;4.38;2.22;;;12.10;91.60;;;;;;5034900;28;20029;-88
2022/04/19 06:21:55;;;;;;;3.92;1.88;;;12.10;91.60;;;;;;5034977;28;20064;-88
2022/04/19 06:24:21;;;;;;;5.25;2.17;;;12.10;91.70;;;;;;5035045;28;20056;-88
2022/04/19 06:26:47;;;;;;;5.25;1.80;;;12.10;91.70;;;;;;5035184;28;20025;-89
2022/04/19 06:29:12;;;;;;;4.38;2.20;;;12.10;91.70;;;;;;5035192;28;20495;-88
2022/04/19 06:31:40;;;;;;;2.60;1.80;;;12.10;91.80;;;;;;5035079;28;20021;-88
2022/04/19 06:34:07;;;;;;;5.45;2.20;;;12.10;91.80;;;;;;5034888;28;20075;-89
2022/04/19 06:36:33;;;;;;;2.88;1.70;;;12.10;91.80;;;;;;5035137;28;20021;-88
2022/04/19 06:38:59;;;;;;;2.55;1.70;;;12.10;91.90;;;;;;5035330;28;20025;-89
2022/04/19 06:41:25;;;;;;;3.65;1.70;;;12.10;91.90;;;;;;5053072;28;20040;-89
2022/04/19 06:43:50;;;;;;;5.78;2.00;;;12.10;91.90;;;;;;5035382;28;20040;-89
2022/04/19 06:46:17;;;;;;;2.55;1.55;;;12.10;92.00;;;;;;5035638;28;20114;-89
2022/04/19 06:48:43;;;;;;;2.75;1.70;;;12.20;92.10;;;;;;5035371;28;20029;-89
2022/04/19 06:51:09;;;;;;;3.33;1.75;;;12.20;92.10;;;;;;5034881;28;20032;-91
2022/04/19 06:53:36;;;;;;;3.40;2.05;;;12.20;92.10;;;;;;5035180;28;20023;-89
2022/04/19 06:56:04;;;;;;;3.25;1.83;;;12.20;92.10;;;;;;5034692;28;20029;-89
2022/04/19 06:58:30;;;;;;;3.38;1.92;;;12.20;92.20;;;;;;5052380;28;20024;-90
2022/04/19 07:00:56;;;;;;;3.20;1.88;;;12.20;92.20;;;;;;5034776;28;20119;-89
2022/04/19 07:03:24;;;;;;;4.63;2.05;;;12.20;92.20;;;;;;5034548;28;20048;-90
2022/04/19 07:05:50;;;;;;;2.42;1.70;;;12.30;92.30;;;;;;5035764;28;20025;-90
2022/04/19 07:08:15;;;;;;;3.17;1.95;;;12.30;92.30;;;;;;5038645;28;20021;-89
2022/04/19 07:10:41;;;;;;;3.80;1.65;;;12.30;92.30;;;;;;5038698;28;20464;-89
2022/04/19 07:13:08;;;;;;;2.92;1.80;;;12.30;92.30;;;;;;5038450;28;20388;-90
2022/04/19 07:15:33;;;;;;;2.90;1.80;;;12.40;92.30;;;;;;5056341;28;20492;-90
2022/04/19 07:17:59;;;;;;;3.42;1.95;;;12.40;92.40;;;;;;5056483;28;20063;-90
2022/04/19 07:28:37;;;;;;;4.70;2.20;;;12.60;92.30;;;;;;5056708;28;20064;-89
2022/04/19 07:31:03;;;;;;;4.10;1.98;;;12.60;92.30;;;;;;5056078;28;20048;-89
2022/04/19 07:33:30;;;;;;;3.05;1.70;;;12.70;92.20;;;;;;5056530;28;20017;-89
2022/04/19 07:35:56;;;;;;;3.53;1.70;;;12.70;92.20;;;;;;5056491;28;20021;-90
2022/04/19 07:38:22;;;;;;;2.97;1.67;;;12.70;92.20;;;;;;5038128;28;20021;-89
2022/04/19 07:40:48;;;;;;;2.83;1.73;;;12.80;92.30;;;;;;5038464;28;20416;-89
2022/04/19 07:43:15;;;;;;;2.47;1.63;;;12.80;92.20;;;;;;5037886;28;20074;-89
2022/04/19 07:45:41;;;;;;;3.45;2.10;;;12.80;92.20;;;;;;5037787;28;20613;-90
2022/04/19 07:48:07;;;;;;;3.28;1.77;;;12.90;92.10;;;;;;5055541;28;20538;-89
2022/04/19 07:50:37;;;;;;;2.42;1.70;;;12.90;92.10;;;;;;5037254;28;20029;-90
2022/04/19 07:53:03;;;;;;;4.10;1.67;;;13.00;92.10;;;;;;5037570;28;20028;-89
2022/04/19 07:55:29;;;;;;;2.83;1.75;;;13.00;92.10;;;;;;5037359;28;20021;-90
2022/04/19 07:57:55;;;;;;;2.63;1.60;;;13.00;92.10;;;;;;5037369;28;20111;-89
2022/04/19 08:00:21;;;;;;;2.22;1.60;;;13.10;92.10;;;;;;5055364;28;20031;-89
2022/04/19 08:02:48;;;;;;;2.80;1.70;;;13.10;92.00;;;;;;5055103;28;20100;-89
2022/04/19 08:05:13;;;;;;;3.65;1.50;;;13.10;92.00;;;;;;5037317;28;20029;-89
2022/04/19 08:07:39;;;;;;;3.13;1.80;;;13.20;92.00;;;;;;5037287;28;20052;-89
2022/04/19 08:10:06;;;;;;;2.85;1.73;;;13.20;92.00;;;;;;5037274;28;20025;-90
2022/04/19 08:12:32;;;;;;;3.08;1.92;;;13.20;91.80;;;;;;5037593;28;20018;-90
2022/04/19 08:14:58;;;;;;;2.53;1.60;;;13.30;91.80;;;;;;5054757;28;20025;-89
2022/04/19 08:17:24;;;;;;;3.22;1.98;;;13.30;91.80;;;;;;5054660;28;20380;-89
2022/04/19 08:19:50;;;;;;;2.70;1.50;;;13.30;91.60;;;;;;5037286;28;20143;-89
2022/04/19 08:22:16;;;;;;;4.80;2.17;;;13.40;91.60;;;;;;5036973;28;20406;-90
2022/04/19 08:24:42;;;;;;;4.07;1.95;;;13.40;91.50;;;;;;5037563;28;20388;-90
2022/04/19 08:27:08;;;;;;;5.88;2.08;;;13.40;91.50;;;;;;5037695;28;20377;-89
2022/04/19 08:29:34;;;;;;;3.47;1.70;;;13.40;91.40;;;;;;5036301;28;20025;-85
2022/04/19 08:31:59;;;;;;;2.22;1.50;;;13.50;91.40;;;;;;5021825;28;20041;-90
2022/04/19 08:34:25;;;;;;;1.75;1.30;;;13.50;91.40;;;;;;5037604;28;20021;-91
2022/04/19 08:36:51;;;;;;;2.00;1.30;;;13.50;91.40;;;;;;5037766;28;20028;-90
2022/04/19 08:39:16;;;;;;;3.78;1.80;;;13.60;91.30;;;;;;5055550;28;20032;-90
2022/04/19 08:41:43;;;;;;;3.35;2.03;;;13.60;91.30;;;;;;5056435;28;20021;-91
2022/04/19 08:44:09;;;;;;;3.17;1.80;;;13.60;91.30;;;;;;5038346;28;20078;-91
2022/04/19 08:46:41;;;;;;;3.35;1.90;;;13.60;91.20;;;;;;5055600;28;20021;-91
2022/04/19 08:49:06;;;;;;;3.45;1.95;;;13.70;91.20;;;;;;5037888;28;20025;-91
2022/04/19 08:51:34;;;;;;;3.47;1.75;;;13.70;91.10;;;;;;5037392;28;20032;-91
2022/04/19 08:59:31;;;;;;;3.35;1.95;;;13.80;91.00;;;;;;5055484;28;20101;-90
2022/04/19 09:01:58;;;;;;;3.03;1.90;;;13.80;91.00;;;;;;5037925;28;20036;-91
2022/04/19 09:04:25;;;;;;;3.72;2.13;;;13.80;90.60;;;;;;5055486;28;20128;-90
2022/04/19 09:06:58;;;;;;;4.07;1.70;;;13.80;90.90;;;;;;5037112;28;20036;-91
2022/04/19 09:09:26;;;;;;;4.65;2.05;;;13.90;90.80;;;;;;5037218;28;20044;-91
2022/04/19 09:12:13;;;;;;;3.35;1.65;;;13.90;90.80;;;;;;5036993;28;20051;-91
2022/04/19 09:14:54;;;;;;;2.20;1.63;;;13.90;91.10;;;;;;5054621;28;20079;-91
2022/04/19 09:17:31;;;;;;;2.53;1.70;;;14.00;90.60;;;;;;5036746;28;20024;-91
2022/04/19 09:20:13;;;;;;;2.78;1.40;;;14.00;90.90;;;;;;5036471;28;20033;-91
2022/04/19 09:22:39;;;;;;;3.67;1.70;;;14.00;90.50;;;;;;5036735;28;20128;-91
2022/04/19 09:25:16;;;;;;;4.07;1.70;;;14.00;90.40;;;;;;5037170;28;20078;-91
2022/04/19 09:27:43;;;;;;;2.83;1.90;;;14.10;90.50;;;;;;5055881;28;20364;-91
2022/04/19 09:30:25;;;;;;;3.60;1.70;;;14.10;90.50;;;;;;5036441;28;20029;-91
2022/04/19 09:33:06;;;;;;;4.63;2.10;;;14.20;90.40;;;;;;5037472;28;20387;-91
2022/04/19 09:35:35;;;;;;;3.45;1.67;;;14.20;90.30;;;;;;5037283;28;20025;-92
2022/04/19 09:38:01;;;;;;;4.35;1.77;;;14.20;90.30;;;;;;5037108;28;20040;-91
2022/04/19 09:40:36;;;;;;;2.05;1.50;;;14.20;90.20;;;;;;5053688;28;20472;-91
2022/04/19 09:43:11;;;;;;;4.00;1.80;;;14.30;90.30;;;;;;5036055;28;20124;-91
2022/04/19 09:45:51;;;;;;;4.28;1.63;;;14.30;90.30;;;;;;5035991;28;20064;-91
2022/04/19 09:48:37;;;;;;;3.85;1.70;;;14.30;90.20;;;;;;5035931;28;20021;-90
2022/04/19 09:51:08;;;;;;;2.85;1.90;;;14.30;90.30;;;;;;5053336;28;20084;-91
2022/04/19 09:53:47;;;;;;;3.40;2.00;;;14.40;90.20;;;;;;5036042;28;20451;-90
2022/04/19 09:56:15;;;;;;;4.40;1.75;;;14.40;90.20;;;;;;5036067;28;20025;-90
2022/04/19 09:58:49;;;;;;;2.83;1.80;;;14.50;90.20;;;;;;5035638;28;20036;-91
2022/04/19 10:09:36;;;;;;;4.20;1.50;;;14.60;90.10;;;;;;5053342;28;20025;-90
2022/04/19 10:12:10;;;;;;;5.70;2.00;;;14.60;90.00;;;;;;5035833;28;20388;-90
2022/04/19 10:14:36;;;;;;;2.90;1.70;;;14.60;90.00;;;;;;5036012;28;20495;-90
2022/04/19 10:17:04;;;;;;;2.47;1.30;;;14.60;89.70;;;;;;5035523;28;20025;-91
2022/04/19 10:19:31;;;;;;;5.60;1.70;;;14.60;89.70;;;;;;5035594;28;20021;-89
2022/04/19 10:22:03;;;;;;;3.45;1.48;;;14.70;89.60;;;;;;5035429;28;20132;-91
2022/04/19 10:24:43;;;;;;;3.85;1.50;;;14.70;89.40;;;;;;5035401;28;20032;-92
2022/04/19 10:27:10;;;;;;;2.15;1.50;;;14.70;88.90;;;;;;5054390;28;20021;-91
2022/04/19 10:29:37;;;;;;;2.13;1.40;;;14.70;89.20;;;;;;5054210;28;20112;-91
2022/04/19 10:32:07;;;;;;;2.33;1.52;;;14.70;89.10;;;;;;5037365;28;20510;-92
2022/04/19 10:34:38;;;;;;;2.67;1.30;;;14.70;89.00;;;;;;5036888;28;20025;-92
2022/04/19 10:37:15;;;;;;;2.75;1.27;;;14.80;89.10;;;;;;5055035;28;20017;-92
2022/04/19 10:39:44;;;;;;;5.28;1.92;;;14.80;88.90;;;;;;5054563;28;20043;-91
2022/04/19 10:42:32;;;;;;;3.75;1.38;;;14.80;88.70;;;;;;5039747;28;20481;-91
2022/04/19 10:45:17;;;;;;;2.13;1.30;;;14.90;88.60;;;;;;5057564;28;20090;-91
2022/04/19 10:47:58;;;;;;;2.15;1.35;;;14.90;88.30;;;;;;5039838;28;20393;-91
2022/04/19 10:50:44;;;;;;;3.92;1.40;;;15.00;88.40;;;;;;5038757;28;20059;-91
2022/04/19 10:53:13;;;;;;;1.65;1.10;;;15.00;88.50;;;;;;5039894;28;20024;-92
2022/04/19 10:55:58;;;;;;;2.63;1.55;;;15.00;88.10;;;;;;5039860;28;20571;-91
2022/04/19 10:58:44;;;;;;;2.22;1.50;;;15.00;87.70;;;;;;5039235;28;20053;-91
2022/04/19 11:01:30;;;;;;;1.77;1.33;;;15.00;88.10;;;;;;5039520;28;20029;-91
2022/04/19 11:03:56;;;;;;;4.70;1.40;;;15.10;87.50;;;;;;5040507;28;20052;-91
2022/04/19 11:06:33;;;;;;;2.28;1.20;;;15.10;87.60;;;;;;5039942;28;20369;-91
2022/04/19 11:09:06;;;;;;;2.55;1.33;;;15.10;87.30;;;;;;5040456;28;20079;-91
2022/04/19 11:11:46;;;;;;;3.08;1.30;;;15.10;87.50;;;;;;5040304;28;20074;-91
2022/04/19 11:14:15;;;;;;;1.83;1.20;;;15.20;87.10;;;;;;5039134;28;20024;-91
2022/04/19 11:16:41;;;;;;;2.45;1.40;;;15.10;87.00;;;;;;5056638;28;20029;-91
2022/04/19 11:19:16;;;;;;;2.95;1.35;;;15.20;87.10;;;;;;5038573;28;20036;-91
2022/04/19 11:21:49;;;;;;;2.92;1.20;;;15.20;87.30;;;;;;5038993;28;20041;-91
2022/04/19 11:24:53;;;;;;;1.73;1.30;;;15.20;87.40;;;;;;5056831;28;20021;-91
2022/04/19 11:27:21;;;;;;;2.38;1.30;;;15.20;86.70;;;;;;5057171;28;20028;-91
2022/04/19 11:29:50;;;;;;;2.72;1.30;;;15.20;86.80;;;;;;5056419;28;20029;-91
2022/04/19 11:32:21;;;;;;;1.70;1.08;;;15.30;86.60;;;;;;5038541;28;20052;-90
2022/04/19 11:35:02;;;;;;;3.38;1.60;;;15.30;86.50;;;;;;5056266;28;20107;-91
2022/04/19 11:37:32;;;;;;;2.22;1.38;;;15.30;86.40;;;;;;5038540;28;20120;-91
2022/04/19 11:48:29;;;;;;;3.17;1.27;;;15.30;85.80;;;;;;5056027;28;20036;-90
2022/04/19 11:51:05;;;;;;;1.98;1.10;;;15.40;86.40;;;;;;5037449;28;20025;-91
2022/04/19 11:53:31;;;;;;;2.63;1.48;;;15.40;85.90;;;;;;5036453;28;20178;-91
2022/04/19 11:55:59;;;;;;;2.05;1.13;;;15.40;85.70;;;;;;5037549;28;20049;-90
2022/04/19 11:58:25;;;;;;;3.03;1.30;;;15.40;85.60;;;;;;5038104;28;20453;-91
2022/04/19 12:01:03;;;;;;;1.65;1.10;;;15.50;85.90;;;;;;5055626;28;20035;-91
2022/04/19 12:03:36;;;;;;;3.13;1.33;;;15.50;86.00;;;;;;5037665;28;20064;-91
2022/04/19 12:06:11;;;;;;;5.28;1.23;;;15.50;85.50;;;;;;5039116;28;20033;-91
2022/04/19 12:08:40;;;;;;;1.70;1.00;;;15.50;85.60;;;;;;5038643;28;20554;-91
2022/04/19 12:11:26;;;;;;;2.53;1.20;;;15.50;85.30;;;;;;5037874;28;20477;-91
2022/04/19 12:13:53;;;;;;;1.40;1.00;;;15.50;85.50;;;;;;5055484;28;20390;-91
2022/04/19 12:16:31;;;;;;;3.03;1.80;;;15.50;85.30;;;;;;5038720;28;20472;-93
2022/04/19 12:19:01;;;;;;;3.55;2.33;;;16.30;81.00;;;;;;5038440;28;20021;-94
2022/04/19 12:21:36;;;;;;;3.47;1.70;;;17.20;77.10;;;;;;5041434;28;20017;-93
2022/04/19 12:24:03;;;;;;;6.80;1.92;;;17.80;73.80;;;;;;5037368;28;20104;-91
2022/04/19 12:26:28;;;;;;;3.75;1.85;;;17.60;75.00;;;;;;5055130;28;20421;-91
2022/04/19 12:29:09;;;;;;;4.50;1.35;;;17.20;75.60;;;;;;5036941;28;20092;-91
2022/04/19 12:31:39;;;;;;;3.63;1.75;;;16.90;76.70;;;;;;5037149;28;20021;-91
2022/04/19 12:34:05;;;;;;;4.82;1.70;;;16.70;78.00;;;;;;5054918;28;20044;-90
2022/04/19 12:36:42;;;;;;;2.60;1.58;;;16.50;79.00;;;;;;5036884;28;20430;-91
2022/04/19 12:39:08;;;;;;;3.92;1.65;;;16.40;79.70;;;;;;5036676;28;20488;-91
2022/04/19 12:41:44;;;;;;;5.20;1.60;;;16.50;80.20;;;;;;5054999;28;20028;-91
2022/04/19 12:44:12;;;;;;;2.25;1.23;;;16.40;80.20;;;;;;5037478;28;20468;-91
2022/04/19 12:46:45;;;;;;;2.22;1.02;;;16.40;80.40;;;;;;5037464;28;20082;-91
2022/04/19 12:49:29;;;;;;;2.95;1.15;;;16.60;80.30;;;;;;5037397;28;20514;-91
2022/04/19 12:52:02;;;;;;;1.65;1.10;;;16.70;80.30;;;;;;5037475;28;20055;-91
2022/04/19 12:54:33;;;;;;;2.83;1.60;;;16.80;80.20;;;;;;5037503;28;20017;-91
2022/04/19 12:57:02;;;;;;;3.53;1.17;;;16.90;80.20;;;;;;5036840;28;20033;-90
2022/04/19 12:59:32;;;;;;;5.55;1.13;;;16.90;80.30;;;;;;5036838;28;20480;-91
2022/04/19 13:01:58;;;;;;;3.05;1.25;;;17.00;80.30;;;;;;5036892;28;20028;-91
2022/04/19 13:04:25;;;;;;;2.20;1.23;;;17.10;80.20;;;;;;5054050;28;20384;-91
2022/04/19 13:12:17;;;;;;;2.38;1.00;;;17.10;80.00;;;;;;5055065;28;20036;-91
2022/04/19 13:12:37;;;;;;;4.43;2.45;;;17.20;80.10;;;;;;5018463;28;20078;-96
2022/04/19 13:15:04;;;;;;;7.43;2.20;;;19.30;76.50;;;;;;5042778;28;20026;-94
2022/04/19 13:17:35;;;;;;;4.32;2.05;;;20.60;72.80;;;;;;5036421;28;20025;-91
2022/04/19 13:20:02;;;;;;;2.83;1.73;;;21.10;71.90;;;;;;5036943;28;20079;-91
2022/04/19 13:22:28;;;;;;;2.65;1.42;;;21.40;71.60;;;;;;5054347;28;20043;-90
2022/04/19 13:24:54;;;;;;;4.00;1.92;;;21.60;71.00;;;;;;5036289;28;20025;-90
2022/04/19 13:27:20;;;;;;;4.43;1.30;;;21.80;70.90;;;;;;5054271;28;20025;-91
2022/04/19 13:29:46;;;;;;;1.90;1.27;;;21.90;70.90;;;;;;5036076;28;20029;-90
2022/04/19 13:32:12;;;;;;;2.15;1.58;;;21.90;70.60;;;;;;5035948;28;20412;-90
2022/04/19 13:34:39;;;;;;;3.20;1.38;;;22.00;70.70;;;;;;5035514;28;20120;-89
2022/04/19 13:37:05;;;;;;;2.95;1.58;;;22.00;70.50;;;;;;5054179;28;20021;-90
2022/04/19 13:39:32;;;;;;;1.60;1.17;;;21.90;70.80;;;;;;5035565;28;20029;-90
2022/04/19 13:41:58;;;;;;;2.22;1.35;;;21.90;70.70;;;;;;5036238;28;20025;-90
2022/04/19 13:44:24;;;;;;;3.28;1.65;;;21.90;70.90;;;;;;5053913;28;20421;-90